Time;durP1;ratioP1;P1;durP2;ratioP2;P2;SDS_P1;SDS_P2;PMS_P1;PMS_P2;Temp;Humidity;BMP_temperature;BMP_pressure;BME280_temperature;BME280_humidity;BME280_pressure;Samples;Min_cycle;Max_cycle;Signal;HPM_P1;HPM_P2
2022/10/14 00:05:03;;;;;;;21.17;16.33;;;17.20;80.00;;;;;;10788800;33;20024;-72
2022/10/14 00:11:14;;;;;;;22.75;15.65;;;17.10;80.30;;;;;;10787568;33;20336;-72
2022/10/14 00:17:16;;;;;;;19.48;14.82;;;17.10;80.50;;;;;;10787569;33;20031;-72
2022/10/14 00:23:18;;;;;;;20.88;15.68;;;17.00;80.60;;;;;;10812648;27;20062;-72
2022/10/14 00:29:20;;;;;;;18.62;12.95;;;17.00;80.60;;;;;;10820792;33;20343;-72
2022/10/14 00:35:22;;;;;;;15.80;14.00;;;17.00;80.60;;;;;;10824868;33;20062;-72
2022/10/14 00:41:30;;;;;;;14.48;10.88;;;17.00;80.60;;;;;;10820548;33;20050;-72
2022/10/14 00:47:32;;;;;;;13.55;11.23;;;16.90;80.50;;;;;;10819835;33;20024;-72
2022/10/14 00:53:36;;;;;;;17.58;11.52;;;16.90;80.50;;;;;;10824366;33;20032;-72
2022/10/14 00:59:38;;;;;;;14.90;9.93;;;16.80;80.50;;;;;;10811098;33;20343;-72
2022/10/14 01:05:54;;;;;;;13.48;10.57;;;16.80;80.60;;;;;;10819897;33;20431;-72
2022/10/14 01:12:21;;;;;;;15.43;12.65;;;16.80;80.70;;;;;;10823921;33;20023;-72
2022/10/14 01:18:44;;;;;;;12.57;9.45;;;16.70;80.60;;;;;;10819627;33;20055;-72
2022/10/14 01:24:51;;;;;;;15.73;11.85;;;16.70;80.60;;;;;;10819512;33;20027;-72
2022/10/14 01:31:27;;;;;;;13.18;11.07;;;16.70;80.60;;;;;;10810413;33;20055;-72
2022/10/14 01:37:34;;;;;;;17.15;11.23;;;16.50;80.50;;;;;;10819339;33;20024;-72
2022/10/14 01:43:41;;;;;;;14.10;10.97;;;16.40;80.60;;;;;;10823293;33;20055;-72
2022/10/14 01:49:52;;;;;;;14.10;10.05;;;16.40;80.90;;;;;;10809860;33;20024;-72
2022/10/14 01:55:56;;;;;;;12.18;7.80;;;16.50;80.80;;;;;;10823005;33;20079;-72
2022/10/14 02:01:58;;;;;;;12.52;8.23;;;16.40;80.70;;;;;;10827061;32;20043;-72
2022/10/14 02:08:32;;;;;;;12.68;9.32;;;16.30;80.80;;;;;;10828643;33;20051;-72
2022/10/14 02:14:56;;;;;;;15.88;13.48;;;16.30;80.70;;;;;;10824431;33;20063;-72
2022/10/14 02:21:07;;;;;;;16.15;7.95;;;16.30;81.00;;;;;;10828279;32;20024;-72
2022/10/14 02:27:17;;;;;;;11.75;8.40;;;16.30;80.90;;;;;;10828163;33;20027;-72
2022/10/14 02:33:26;;;;;;;11.93;7.97;;;16.20;81.00;;;;;;10828034;33;20024;-72
2022/10/14 02:39:33;;;;;;;7.93;5.75;;;16.10;81.00;;;;;;10827961;33;20024;-72
2022/10/14 02:45:43;;;;;;;12.30;8.15;;;16.10;81.00;;;;;;10827685;33;20338;-72
2022/10/14 02:51:45;;;;;;;12.30;8.75;;;16.10;80.90;;;;;;10827281;33;20062;-72
2022/10/14 02:57:47;;;;;;;10.30;7.65;;;16.10;80.80;;;;;;10827330;33;20055;-72
2022/10/14 03:03:49;;;;;;;13.62;8.60;;;16.10;80.80;;;;;;10827325;33;20344;-72
2022/10/14 03:09:52;;;;;;;12.70;8.20;;;16.10;80.70;;;;;;10826764;32;20051;-72
2022/10/14 03:15:54;;;;;;;16.02;8.95;;;16.10;80.70;;;;;;10813945;33;20028;-72
2022/10/14 03:21:56;;;;;;;18.60;8.77;;;16.00;80.70;;;;;;10822630;33;20140;-72
2022/10/14 03:28:00;;;;;;;10.77;7.10;;;16.00;80.80;;;;;;10826601;33;20028;-72
2022/10/14 03:34:06;;;;;;;9.68;7.28;;;15.90;80.80;;;;;;10813639;33;20051;-72
2022/10/14 03:40:10;;;;;;;13.43;9.68;;;15.80;80.90;;;;;;10826384;33;20058;-72
2022/10/14 03:46:12;;;;;;;11.15;8.80;;;15.80;80.80;;;;;;10826090;33;20077;-72
2022/10/14 03:52:14;;;;;;;13.18;9.18;;;15.80;80.90;;;;;;10826168;33;20036;-72
2022/10/14 03:58:17;;;;;;;12.90;9.63;;;15.80;80.90;;;;;;10825856;33;20140;-72
2022/10/14 04:04:21;;;;;;;16.20;11.52;;;15.80;81.30;;;;;;10825692;33;20062;-72
2022/10/14 04:10:23;;;;;;;13.57;10.45;;;15.80;81.60;;;;;;10812235;33;20024;-72
2022/10/14 04:16:26;;;;;;;13.73;9.20;;;15.70;81.90;;;;;;10825172;33;20360;-72
2022/10/14 04:22:28;;;;;;;13.68;9.35;;;15.70;82.10;;;;;;10824237;32;20392;-72
2022/10/14 04:28:42;;;;;;;13.52;10.48;;;15.70;82.10;;;;;;10824984;33;20023;-72
2022/10/14 04:34:45;;;;;;;14.02;9.35;;;15.60;82.10;;;;;;10820790;33;20028;-72
2022/10/14 04:40:48;;;;;;;22.17;13.50;;;15.70;81.80;;;;;;10824589;33;20060;-72
2022/10/14 04:46:50;;;;;;;14.02;9.55;;;15.70;81.60;;;;;;10824376;33;20415;-72
2022/10/14 04:52:52;;;;;;;16.05;12.32;;;15.60;81.80;;;;;;10824346;33;20047;-72
2022/10/14 04:58:55;;;;;;;12.37;10.32;;;15.60;81.90;;;;;;10807058;33;20024;-72
2022/10/14 05:05:04;;;;;;;13.23;8.77;;;15.50;81.90;;;;;;10811653;33;20340;-72
2022/10/14 05:11:06;;;;;;;17.70;14.10;;;15.50;81.80;;;;;;10823938;33;20055;-72
2022/10/14 05:17:10;;;;;;;17.00;12.02;;;15.50;81.60;;;;;;10810613;33;20028;-72
2022/10/14 05:23:13;;;;;;;15.77;12.18;;;15.50;81.80;;;;;;10874108;32;20051;-72
2022/10/14 05:29:16;;;;;;;14.10;10.48;;;15.50;81.80;;;;;;10823251;33;20062;-72
2022/10/14 05:35:19;;;;;;;19.77;13.13;;;15.50;81.60;;;;;;10827463;32;20016;-72
2022/10/14 05:41:21;;;;;;;11.80;9.65;;;15.40;81.60;;;;;;10816566;33;20360;-72
2022/10/14 05:47:23;;;;;;;12.68;9.00;;;15.40;81.70;;;;;;10831207;33;20043;-72
2022/10/14 05:53:27;;;;;;;12.05;8.48;;;15.40;81.70;;;;;;10829352;32;20388;-72
2022/10/14 05:59:32;;;;;;;12.55;7.62;;;15.30;81.60;;;;;;10824843;33;20066;-72
2022/10/14 06:05:35;;;;;;;12.90;8.68;;;15.30;81.60;;;;;;10828575;33;20027;-72
2022/10/14 06:11:38;;;;;;;9.77;7.40;;;15.30;81.70;;;;;;10815075;32;20094;-72
2022/10/14 06:17:40;;;;;;;10.93;6.68;;;15.20;81.70;;;;;;10827644;33;20109;-72
2022/10/14 06:23:43;;;;;;;15.10;10.75;;;15.20;81.80;;;;;;10824241;33;20101;-72
2022/10/14 06:29:45;;;;;;;14.60;10.15;;;15.20;81.90;;;;;;10827208;33;20032;-72
2022/10/14 06:35:48;;;;;;;12.85;8.20;;;15.30;81.80;;;;;;10823735;33;20043;-72
2022/10/14 06:41:50;;;;;;;15.25;8.63;;;15.30;81.70;;;;;;10827855;33;20036;-74
2022/10/14 06:47:55;;;;;;;10.27;7.78;;;15.30;81.90;;;;;;10827132;32;20024;-71
2022/10/14 06:53:57;;;;;;;9.73;6.93;;;15.40;81.80;;;;;;10827235;33;20050;-72
2022/10/14 06:59:59;;;;;;;15.15;9.23;;;15.50;81.80;;;;;;10827518;33;20400;-72
2022/10/14 07:06:05;;;;;;;9.25;5.50;;;15.60;81.70;;;;;;10827164;33;20036;-72
2022/10/14 07:12:07;;;;;;;9.07;6.60;;;15.60;81.60;;;;;;10827045;33;20319;-72
2022/10/14 07:18:09;;;;;;;12.48;8.60;;;15.70;81.60;;;;;;10824727;33;20062;-72
2022/10/14 07:24:11;;;;;;;12.88;7.57;;;15.70;81.50;;;;;;10822590;32;20047;-72
2022/10/14 07:30:13;;;;;;;21.52;13.07;;;15.80;81.50;;;;;;10813312;33;20332;-72
2022/10/14 07:36:17;;;;;;;9.20;6.45;;;16.00;81.40;;;;;;10823789;33;20055;-72
2022/10/14 07:42:19;;;;;;;12.80;7.65;;;16.10;81.40;;;;;;10825891;33;20063;-72
2022/10/14 07:48:21;;;;;;;12.70;9.23;;;16.20;81.50;;;;;;10809880;33;20396;-72
2022/10/14 07:54:28;;;;;;;9.82;7.00;;;16.30;81.70;;;;;;10823902;33;20036;-72
2022/10/14 08:00:30;;;;;;;9.88;6.43;;;16.40;81.70;;;;;;10825368;32;20021;-72
2022/10/14 08:06:32;;;;;;;15.90;11.98;;;16.50;81.70;;;;;;10824220;33;20028;-72
2022/10/14 08:12:35;;;;;;;15.25;10.27;;;16.60;81.80;;;;;;10825288;33;20320;-73
2022/10/14 08:18:37;;;;;;;9.68;7.55;;;16.70;81.50;;;;;;10824731;33;20035;-72
2022/10/14 08:24:39;;;;;;;15.93;14.23;;;16.80;81.30;;;;;;10369219;27;12287846;-73
2022/10/14 08:30:41;;;;;;;21.90;16.80;;;16.90;81.50;;;;;;10696534;32;20385;-73
2022/10/14 08:36:43;;;;;;;18.00;13.43;;;17.00;81.60;;;;;;10711705;33;20033;-73
2022/10/14 08:43:03;;;;;;;18.50;13.95;;;17.00;80.90;;;;;;10709543;32;20045;-73
2022/10/14 08:49:30;;;;;;;20.27;15.30;;;17.20;80.70;;;;;;10732287;33;20041;-73
2022/10/14 08:55:42;;;;;;;24.65;16.52;;;17.30;80.10;;;;;;10748224;33;20067;-73
2022/10/14 09:02:09;;;;;;;20.25;16.05;;;17.30;79.60;;;;;;10750834;33;20055;-73
2022/10/14 09:08:16;;;;;;;21.58;15.85;;;17.40;79.20;;;;;;10752547;33;20028;-73
2022/10/14 09:14:23;;;;;;;21.65;15.68;;;17.60;78.90;;;;;;10757163;33;20021;-73
2022/10/14 09:20:25;;;;;;;22.50;18.30;;;17.70;78.50;;;;;;10752924;33;20028;-72
2022/10/14 09:26:45;;;;;;;20.08;14.82;;;17.80;78.10;;;;;;10754660;33;20057;-72
2022/10/14 09:32:53;;;;;;;20.35;16.17;;;17.80;77.90;;;;;;10756664;33;20341;-72
2022/10/14 09:38:56;;;;;;;26.77;14.10;;;17.90;77.70;;;;;;10754583;33;20024;-72
2022/10/14 09:45:06;;;;;;;19.70;16.60;;;18.10;77.40;;;;;;10752195;33;20153;-72
2022/10/14 09:51:31;;;;;;;28.25;17.25;;;18.20;76.70;;;;;;10756318;33;20056;-72
2022/10/14 09:57:33;;;;;;;24.50;18.00;;;18.30;76.00;;;;;;10751835;33;20032;-72
2022/10/14 10:03:35;;;;;;;27.62;18.10;;;18.40;76.00;;;;;;10751596;33;20013;-72
2022/10/14 10:10:30;;;;;;;21.17;16.15;;;18.60;75.60;;;;;;10755375;33;20068;-72
2022/10/14 10:16:35;;;;;;;22.92;17.85;;;18.80;75.00;;;;;;10831209;32;20027;-72
2022/10/14 10:22:38;;;;;;;19.12;15.93;;;18.90;75.00;;;;;;10829518;32;20135;-72
2022/10/14 10:28:45;;;;;;;22.52;16.45;;;19.00;74.70;;;;;;10860259;32;20360;-72
2022/10/14 10:35:21;;;;;;;22.17;16.95;;;19.10;74.00;;;;;;10866789;32;20400;-72
2022/10/14 10:41:39;;;;;;;25.20;17.95;;;19.30;73.70;;;;;;10684427;33;20145;-72
2022/10/14 10:47:47;;;;;;;24.77;20.88;;;19.60;73.00;;;;;;10684734;33;20041;-72
2022/10/14 10:54:16;;;;;;;19.37;17.13;;;19.70;72.20;;;;;;10609022;33;20077;-72
2022/10/14 11:00:22;;;;;;;19.90;17.60;;;19.80;72.20;;;;;;10605841;33;20017;-72
2022/10/14 11:13:13;;;;;;;25.25;19.52;;;20.20;69.90;;;;;;10702774;33;20028;-73
2022/10/14 11:19:32;;;;;;;22.87;16.77;;;20.30;69.30;;;;;;10785923;33;20349;-72
2022/10/14 11:25:43;;;;;;;;;;;20.40;68.90;;;;;;10786284;33;20013;-72
2022/10/14 11:32:34;;;;;;;21.75;16.35;;;20.70;68.60;;;;;;10789946;33;19931;-73
2022/10/14 11:39:30;;;;;;;19.58;16.15;;;20.80;68.70;;;;;;10789747;33;20016;-73
2022/10/14 11:45:32;;;;;;;19.83;16.08;;;21.00;68.50;;;;;;10787592;33;20020;-72
2022/10/14 11:51:51;;;;;;;23.27;19.62;;;21.10;67.50;;;;;;10788006;33;20043;-73
2022/10/14 11:58:04;;;;;;;28.02;22.23;;;21.10;67.70;;;;;;10839325;32;20020;-73
2022/10/14 12:04:21;;;;;;;22.45;13.98;;;21.00;67.10;;;;;;10787990;33;20396;-73
2022/10/14 12:10:32;;;;;;;25.23;20.10;;;20.90;67.10;;;;;;10788670;33;20024;-73
2022/10/14 12:16:39;;;;;;;25.20;19.55;;;20.90;66.50;;;;;;10788432;33;20024;-73
2022/10/14 12:22:42;;;;;;;23.30;14.07;;;20.80;66.50;;;;;;10837310;32;20016;-73
2022/10/14 12:28:45;;;;;;;17.80;14.00;;;20.80;66.50;;;;;;10784181;33;20058;-71
2022/10/14 12:34:49;;;;;;;15.77;13.07;;;20.80;66.50;;;;;;10787991;32;20332;-72
2022/10/14 12:40:51;;;;;;;21.85;16.42;;;20.80;66.30;;;;;;10786198;33;20027;-71
2022/10/14 12:46:54;;;;;;;22.33;18.52;;;20.90;66.00;;;;;;10787117;33;20028;-71
2022/10/14 12:53:01;;;;;;;25.33;19.37;;;20.90;66.10;;;;;;10784996;33;20311;-72
2022/10/14 12:59:08;;;;;;;30.10;20.77;;;20.90;65.70;;;;;;10783557;33;20043;-72
2022/10/14 13:05:45;;;;;;;20.62;15.13;;;20.90;65.70;;;;;;10837158;32;20043;-72
2022/10/14 13:11:59;;;;;;;19.10;11.82;;;20.90;65.40;;;;;;10783184;33;20032;-72
2022/10/14 13:18:43;;;;;;;22.73;13.20;;;21.00;65.40;;;;;;10787193;33;20047;-72
2022/10/14 13:24:45;;;;;;;18.87;14.25;;;21.00;65.20;;;;;;10861955;32;20042;-72
2022/10/14 13:31:14;;;;;;;16.73;13.18;;;21.00;65.10;;;;;;10858833;32;20404;-72
2022/10/14 13:37:16;;;;;;;22.52;18.30;;;21.00;65.00;;;;;;10858951;32;20019;-77
2022/10/14 13:43:38;;;;;;;21.98;15.07;;;21.10;65.10;;;;;;10862306;32;20024;-77
2022/10/14 13:49:43;;;;;;;17.40;14.00;;;21.10;64.40;;;;;;10862570;32;20411;-77
2022/10/14 13:55:48;;;;;;;20.17;16.62;;;21.00;64.70;;;;;;10865835;32;20020;-76
2022/10/14 14:01:54;;;;;;;17.73;14.20;;;21.00;64.70;;;;;;10807629;32;20381;-76
2022/10/14 14:07:57;;;;;;;16.83;10.57;;;20.90;64.60;;;;;;10792092;33;20443;-76
2022/10/14 14:14:08;;;;;;;21.77;15.30;;;20.90;64.80;;;;;;10790004;33;20082;-76
2022/10/14 14:20:10;;;;;;;18.25;13.50;;;20.80;64.70;;;;;;10791968;33;20059;-76
2022/10/14 14:26:12;;;;;;;19.33;12.40;;;20.80;65.00;;;;;;10789264;33;20024;-76
2022/10/14 14:32:17;;;;;;;21.83;14.13;;;20.80;65.10;;;;;;10792704;33;20059;-71
2022/10/14 14:38:34;;;;;;;13.25;10.88;;;20.90;65.20;;;;;;10791369;33;20024;-71
2022/10/14 14:44:38;;;;;;;17.75;12.02;;;20.80;65.30;;;;;;10791286;33;20032;-77
2022/10/14 14:50:43;;;;;;;15.80;12.70;;;20.80;65.50;;;;;;10790913;33;20313;-76
2022/10/14 14:56:54;;;;;;;20.60;12.63;;;20.80;65.60;;;;;;10790677;33;20020;-76
2022/10/14 15:03:01;;;;;;;16.90;10.68;;;20.90;65.80;;;;;;10841347;32;20050;-76
2022/10/14 15:09:16;;;;;;;16.67;12.55;;;21.00;65.80;;;;;;10789628;33;20033;-76
2022/10/14 15:15:36;;;;;;;16.52;11.00;;;21.00;65.80;;;;;;10762375;32;20079;-77
2022/10/14 15:22:36;;;;;;;17.20;11.30;;;21.00;65.80;;;;;;10753514;33;20064;-76
2022/10/14 15:28:38;;;;;;;13.85;9.82;;;21.10;65.80;;;;;;10675925;32;20295;-76
2022/10/14 15:35:13;;;;;;;15.07;11.12;;;21.20;65.90;;;;;;10673412;32;20061;-76
2022/10/14 15:41:16;;;;;;;20.25;14.50;;;21.30;65.80;;;;;;10675758;32;20358;-76
2022/10/14 15:47:18;;;;;;;21.80;18.17;;;21.60;65.40;;;;;;10677445;32;20030;-77
2022/10/14 15:53:20;;;;;;;23.48;18.80;;;21.30;65.50;;;;;;10808508;32;20058;-77
2022/10/14 15:59:23;;;;;;;26.08;20.10;;;20.90;66.30;;;;;;10833714;32;20067;-76
2022/10/14 16:05:28;;;;;;;26.83;21.45;;;20.70;67.00;;;;;;10752354;33;20102;-72
2022/10/14 16:11:30;;;;;;;28.12;20.42;;;20.40;67.40;;;;;;10751998;33;20029;-72
2022/10/14 16:17:32;;;;;;;23.10;18.45;;;20.30;67.70;;;;;;10751108;33;20025;-72
2022/10/14 16:23:36;;;;;;;24.73;19.00;;;20.20;68.10;;;;;;10799140;27;20062;-72
2022/10/14 16:29:38;;;;;;;27.02;18.42;;;20.10;68.40;;;;;;10808617;33;20040;-72
2022/10/14 16:35:41;;;;;;;26.15;19.48;;;20.00;68.50;;;;;;10825010;33;20086;-73
2022/10/14 16:41:57;;;;;;;29.52;17.58;;;19.90;68.80;;;;;;10824702;33;20108;-72
2022/10/14 16:47:59;;;;;;;20.83;15.30;;;19.80;69.00;;;;;;10821381;33;20055;-72
2022/10/14 16:54:01;;;;;;;21.62;18.12;;;19.70;69.20;;;;;;10824443;33;20024;-72
2022/10/14 17:00:16;;;;;;;20.55;15.57;;;19.70;69.30;;;;;;10824138;33;20051;-72
2022/10/14 17:06:19;;;;;;;25.15;16.80;;;19.50;69.50;;;;;;10824222;33;20043;-72
2022/10/14 17:12:21;;;;;;;27.90;18.15;;;19.40;69.70;;;;;;10823826;33;20028;-72
2022/10/14 17:18:23;;;;;;;23.42;16.42;;;19.40;69.90;;;;;;10823977;33;20411;-72
2022/10/14 17:24:28;;;;;;;23.42;16.87;;;19.30;70.00;;;;;;10823732;33;20020;-72
2022/10/14 17:30:30;;;;;;;18.50;15.40;;;19.30;70.20;;;;;;10825186;32;20063;-72
2022/10/14 17:36:33;;;;;;;28.02;14.30;;;19.20;70.50;;;;;;10829887;33;20028;-72
2022/10/14 17:42:37;;;;;;;25.33;17.75;;;19.10;70.70;;;;;;10816013;33;20051;-72
2022/10/14 17:48:41;;;;;;;22.52;17.30;;;19.00;70.90;;;;;;10829516;33;20028;-72
2022/10/14 17:54:43;;;;;;;21.70;16.92;;;19.00;70.90;;;;;;10829510;33;20019;-71
2022/10/14 18:00:45;;;;;;;24.33;18.67;;;19.00;71.00;;;;;;10829168;33;20427;-71
2022/10/14 18:06:49;;;;;;;24.02;16.55;;;18.90;71.10;;;;;;10828793;33;20050;-71
2022/10/14 18:12:51;;;;;;;22.52;16.62;;;18.90;71.30;;;;;;10828619;33;20047;-72
2022/10/14 18:18:53;;;;;;;23.50;16.48;;;18.90;71.50;;;;;;10824320;33;20027;-71
2022/10/14 18:24:55;;;;;;;19.23;13.75;;;18.80;71.60;;;;;;10828217;33;20027;-72
2022/10/14 18:31:03;;;;;;;26.40;17.30;;;18.70;71.80;;;;;;10823979;33;20032;-72
2022/10/14 18:37:05;;;;;;;25.77;18.50;;;18.70;72.20;;;;;;10823710;33;20043;-71
2022/10/14 18:43:08;;;;;;;28.58;18.77;;;18.60;72.50;;;;;;10827210;32;20038;-71
2022/10/14 18:49:10;;;;;;;31.77;20.77;;;18.60;73.00;;;;;;10827663;33;20078;-72
2022/10/14 18:55:12;;;;;;;27.60;19.20;;;18.50;73.40;;;;;;10810298;33;20054;-72
2022/10/14 19:01:16;;;;;;;25.30;20.50;;;18.50;73.80;;;;;;10827187;32;20062;-72
2022/10/14 19:07:18;;;;;;;32.03;20.17;;;18.40;74.20;;;;;;10826976;33;20024;-72
2022/10/14 19:13:20;;;;;;;24.83;21.15;;;18.30;74.80;;;;;;10820540;33;20082;-73
2022/10/14 19:19:22;;;;;;;29.42;20.08;;;18.30;75.00;;;;;;10790074;32;20434;-71
2022/10/14 19:25:24;;;;;;;23.92;18.02;;;18.20;75.00;;;;;;10792949;33;20051;-72
2022/10/14 19:31:30;;;;;;;26.12;18.58;;;18.20;74.90;;;;;;10789496;33;20314;-72
2022/10/14 19:37:32;;;;;;;25.20;19.70;;;18.20;75.00;;;;;;10785443;33;20029;-73
2022/10/14 19:43:34;;;;;;;25.52;20.73;;;18.10;75.10;;;;;;10787347;33;20028;-72
2022/10/14 19:49:36;;;;;;;26.95;19.52;;;18.00;75.70;;;;;;10801189;33;20032;-77
2022/10/14 19:55:38;;;;;;;28.38;23.65;;;17.90;75.70;;;;;;10817959;32;20042;-77
2022/10/14 20:01:40;;;;;;;27.25;23.62;;;17.90;76.20;;;;;;10825789;33;20063;-77
2022/10/14 20:07:43;;;;;;;33.22;22.27;;;17.80;76.10;;;;;;10841814;32;20052;-77
2022/10/14 20:13:45;;;;;;;31.23;23.62;;;17.80;76.10;;;;;;10825104;33;20029;-77
2022/10/14 20:19:47;;;;;;;35.22;22.73;;;17.80;76.30;;;;;;10813860;33;20055;-77
2022/10/14 20:26:00;;;;;;;29.17;23.12;;;17.70;76.30;;;;;;10811649;33;20059;-77
2022/10/14 20:32:11;;;;;;;30.75;23.12;;;17.70;76.60;;;;;;10823689;33;20050;-77
2022/10/14 20:38:13;;;;;;;24.00;19.45;;;17.70;76.60;;;;;;10929511;32;20050;-78
2022/10/14 20:44:16;;;;;;;25.37;19.55;;;17.70;76.80;;;;;;10825740;33;20025;-77
2022/10/14 20:50:18;;;;;;;23.25;17.67;;;17.70;76.70;;;;;;10825237;33;20302;-77
2022/10/14 20:56:20;;;;;;;23.62;19.08;;;17.60;77.00;;;;;;10824544;33;20136;-77
2022/10/14 21:02:23;;;;;;;24.30;19.87;;;17.60;77.30;;;;;;10801933;33;20028;-77
2022/10/14 21:08:25;;;;;;;29.92;19.17;;;17.50;77.20;;;;;;10794383;33;20527;-72
2022/10/14 21:14:27;;;;;;;29.52;21.67;;;17.50;77.30;;;;;;10793853;33;20020;-72
2022/10/14 21:20:33;;;;;;;26.48;19.95;;;17.40;77.60;;;;;;10793742;32;20039;-72
2022/10/14 21:26:35;;;;;;;27.62;19.95;;;17.40;78.00;;;;;;10793780;33;20017;-72
2022/10/14 21:32:38;;;;;;;29.05;24.08;;;17.40;78.00;;;;;;10776219;33;20321;-72
2022/10/14 21:38:40;;;;;;;26.80;19.73;;;17.30;77.90;;;;;;10793306;33;20348;-72
2022/10/14 21:44:42;;;;;;;22.92;18.35;;;17.30;78.20;;;;;;10789101;32;20020;-72
2022/10/14 21:50:44;;;;;;;28.20;21.95;;;17.30;78.20;;;;;;10792822;33;20033;-72
2022/10/14 21:56:46;;;;;;;38.53;23.08;;;17.20;78.20;;;;;;10792620;33;20028;-72
2022/10/14 22:02:53;;;;;;;36.60;26.00;;;17.20;78.40;;;;;;10792665;33;20424;-72
2022/10/14 22:08:57;;;;;;;23.12;18.12;;;17.20;78.30;;;;;;10792411;33;20054;-72
2022/10/14 22:15:00;;;;;;;26.48;20.33;;;17.00;78.30;;;;;;10788113;33;20356;-72
2022/10/14 22:21:05;;;;;;;25.15;19.25;;;16.90;78.40;;;;;;10779026;32;20020;-72
2022/10/14 22:27:07;;;;;;;24.75;15.45;;;17.00;78.40;;;;;;10791749;33;20025;-72
2022/10/14 22:33:09;;;;;;;18.85;14.52;;;16.90;78.40;;;;;;10791758;33;20031;-72
2022/10/14 22:39:17;;;;;;;28.80;21.70;;;16.80;78.50;;;;;;10791557;33;20091;-72
2022/10/14 22:45:19;;;;;;;27.40;20.33;;;16.80;78.50;;;;;;10791368;33;20050;-72
2022/10/14 22:51:26;;;;;;;25.60;19.80;;;16.80;78.50;;;;;;10787156;33;20086;-72
2022/10/14 22:57:28;;;;;;;30.67;22.30;;;16.80;78.70;;;;;;10791043;33;20356;-71
2022/10/14 23:03:32;;;;;;;26.10;18.83;;;16.80;79.00;;;;;;10791051;33;20021;-77
2022/10/14 23:09:34;;;;;;;25.90;19.20;;;16.80;78.90;;;;;;10790666;33;20024;-77
2022/10/14 23:15:36;;;;;;;26.17;19.42;;;16.80;78.90;;;;;;10790524;33;20063;-77
2022/10/14 23:21:38;;;;;;;27.45;22.83;;;16.80;78.90;;;;;;10786482;33;20431;-77
2022/10/14 23:27:40;;;;;;;24.95;21.83;;;16.80;79.20;;;;;;10789828;32;20091;-77
2022/10/14 23:33:42;;;;;;;25.15;19.52;;;16.70;79.30;;;;;;10790078;33;20101;-77
2022/10/14 23:39:44;;;;;;;25.75;21.27;;;16.70;79.50;;;;;;10790146;33;20028;-77
2022/10/14 23:45:46;;;;;;;33.22;23.20;;;16.60;80.20;;;;;;10786995;33;20070;-77
2022/10/14 23:51:48;;;;;;;23.50;20.90;;;16.60;80.20;;;;;;10772378;33;20329;-77
2022/10/14 23:57:50;;;;;;;22.95;17.02;;;16.60;80.00;;;;;;10788431;33;20399;-77
